Bonnard, Canada
Current Conditions -  °F | °C
As of 2:00 PM on Thursday 30 Oct 2014 (Local Time) from CYRJ Reporting Station
Overcast Overcast  
Wind Chill: 37°   Ceiling: 2500
Heat Index: 43°   Visibility: 40mi
Dew Point: 27°   Wind: 9mph
Humidity: 53%   Direction: 300°WNW
Pressure: 29.89"   Gusts: NA
Location:  50.73°N, 71.02°W
Report Text: CYRJ 301800Z 30008KT 40SM FEW010 OVC025 OVC100 06/M03 A2989 RMK SF1SC7AC1 AC TR SLP129
Loading
Personal Weather Stations






























Interactive Weather Map
Tropical Storm Tracking
New forecast layout! Learn more

10-Day Weather Forecast

Advertisements
Track Severe Weather on mobile